Time;durP1;ratioP1;P1;durP2;ratioP2;P2;SDS_P1;SDS_P2;PMS_P1;PMS_P2;Temp;Humidity;BMP_temperature;BMP_pressure;BME280_temperature;BME280_humidity;BME280_pressure;Samples;Min_cycle;Max_cycle;Signal;HPM_P1;HPM_P2
2023/05/10 00:01:38;;;;;;;10.00;8.98;;;13.60;99.90;;;;;;5020740;28;20072;-69
2023/05/10 00:04:03;;;;;;;9.73;8.75;;;13.70;99.90;;;;;;5037155;28;20076;-69
2023/05/10 00:06:30;;;;;;;9.30;8.40;;;13.70;99.90;;;;;;5036938;28;20438;-69
2023/05/10 00:08:55;;;;;;;10.10;9.05;;;13.70;99.90;;;;;;5037073;28;20037;-69
2023/05/10 00:11:21;;;;;;;9.05;8.18;;;13.60;99.90;;;;;;5036832;28;20386;-69
2023/05/10 00:13:47;;;;;;;9.68;8.68;;;13.60;99.90;;;;;;5036757;28;20072;-69
2023/05/10 00:16:13;;;;;;;8.13;7.32;;;13.70;99.90;;;;;;5036676;28;20037;-69
2023/05/10 00:18:39;;;;;;;8.60;7.80;;;13.60;99.90;;;;;;5035541;28;20524;-69
2023/05/10 00:21:06;;;;;;;8.25;7.45;;;13.60;99.90;;;;;;5036729;28;20063;-69
2023/05/10 00:23:31;;;;;;;8.90;8.00;;;13.60;99.90;;;;;;5036578;28;20505;-69
2023/05/10 00:25:57;;;;;;;9.13;8.23;;;13.60;99.90;;;;;;5036534;28;20036;-69
2023/05/10 00:28:23;;;;;;;12.13;9.13;;;13.60;99.90;;;;;;5036403;28;20493;-69
2023/05/10 00:30:48;;;;;;;9.02;8.15;;;13.60;99.90;;;;;;5036629;28;20154;-69
2023/05/10 00:33:14;;;;;;;8.32;7.40;;;13.60;99.90;;;;;;5036409;28;20045;-69
2023/05/10 00:35:40;;;;;;;8.88;8.05;;;13.50;99.90;;;;;;5036358;28;20056;-69
2023/05/10 00:38:05;;;;;;;10.38;8.77;;;13.50;99.90;;;;;;5036265;28;20052;-69
2023/05/10 00:40:31;;;;;;;10.02;8.73;;;13.50;99.90;;;;;;5036345;28;20048;-69
2023/05/10 00:42:58;;;;;;;9.77;8.75;;;13.50;99.90;;;;;;5036522;28;20085;-69
2023/05/10 00:45:24;;;;;;;9.68;8.65;;;13.50;99.90;;;;;;5053952;28;20053;-69
2023/05/10 00:47:51;;;;;;;8.75;7.82;;;13.50;99.90;;;;;;5035949;28;20493;-69
2023/05/10 00:50:17;;;;;;;15.57;10.50;;;13.50;99.90;;;;;;5036366;28;20037;-69
2023/05/10 00:52:43;;;;;;;11.05;9.85;;;13.50;99.90;;;;;;5036246;28;20444;-69
2023/05/10 00:55:11;;;;;;;11.95;9.27;;;13.50;99.90;;;;;;5036037;28;20476;-69
2023/05/10 00:57:36;;;;;;;8.85;8.00;;;13.40;99.90;;;;;;5036222;28;20053;-69
2023/05/10 01:00:03;;;;;;;11.50;9.05;;;13.50;99.90;;;;;;5035832;28;20382;-69
2023/05/10 01:02:28;;;;;;;12.55;9.30;;;13.40;99.90;;;;;;5036075;28;20113;-69
2023/05/10 01:04:54;;;;;;;9.70;8.70;;;13.40;99.90;;;;;;5035783;28;20451;-69
2023/05/10 01:07:20;;;;;;;8.95;8.05;;;13.50;99.90;;;;;;5035703;28;20068;-69
2023/05/10 01:09:46;;;;;;;10.07;9.00;;;13.40;99.90;;;;;;5035746;28;20045;-69
2023/05/10 01:12:12;;;;;;;10.95;8.80;;;13.40;99.90;;;;;;5035698;28;20047;-69
2023/05/10 01:14:37;;;;;;;11.95;9.02;;;13.40;99.90;;;;;;5035915;28;20127;-69
2023/05/10 01:17:06;;;;;;;10.30;9.00;;;13.40;99.90;;;;;;5035525;28;20044;-69
2023/05/10 01:19:34;;;;;;;10.93;9.82;;;13.40;99.90;;;;;;5035825;28;20067;-69
2023/05/10 01:23:04;;;;;;;12.00;9.35;;;13.30;99.90;;;;;;5035747;28;20053;-69
2023/05/10 01:25:38;;;;;;;10.07;8.15;;;13.30;99.90;;;;;;5035546;28;20513;-69
2023/05/10 01:28:26;;;;;;;13.38;8.85;;;13.50;99.90;;;;;;5035634;28;20068;-69
2023/05/10 01:30:57;;;;;;;9.90;8.57;;;13.40;99.90;;;;;;5035018;28;20049;-69
2023/05/10 01:33:44;;;;;;;9.40;8.18;;;13.40;99.90;;;;;;5035373;28;20037;-69
2023/05/10 01:36:29;;;;;;;10.45;8.30;;;13.40;99.90;;;;;;5035603;28;20037;-68
2023/05/10 01:39:11;;;;;;;9.73;8.27;;;13.40;99.90;;;;;;5035217;28;20048;-69
2023/05/10 01:41:49;;;;;;;14.90;9.70;;;13.40;99.90;;;;;;5035291;28;20077;-69
2023/05/10 01:44:39;;;;;;;12.38;9.55;;;13.40;99.90;;;;;;5035115;28;20049;-69
2023/05/10 01:47:25;;;;;;;10.00;8.70;;;13.30;99.90;;;;;;5035314;28;20060;-69
2023/05/10 01:49:55;;;;;;;9.82;8.80;;;13.30;99.90;;;;;;5035274;28;20162;-69
2023/05/10 01:52:32;;;;;;;11.57;8.98;;;13.30;99.90;;;;;;5035093;28;20048;-69
2023/05/10 01:55:04;;;;;;;10.20;8.75;;;13.30;99.90;;;;;;5035260;28;20131;-69
2023/05/10 01:57:33;;;;;;;8.70;7.80;;;13.30;99.90;;;;;;5035681;28;20077;-69
2023/05/10 02:00:01;;;;;;;11.07;8.80;;;13.30;99.90;;;;;;5035204;28;20071;-69
2023/05/10 02:02:28;;;;;;;10.13;8.75;;;13.40;99.90;;;;;;5035048;28;20063;-69
2023/05/10 02:04:56;;;;;;;13.45;7.95;;;13.40;99.90;;;;;;5035137;28;20505;-69
2023/05/10 02:07:23;;;;;;;12.48;8.15;;;13.30;99.90;;;;;;5035213;28;20029;-69
2023/05/10 02:09:50;;;;;;;9.85;7.97;;;13.30;99.90;;;;;;5035124;28;20124;-69
2023/05/10 02:12:17;;;;;;;11.70;9.02;;;13.40;99.90;;;;;;5034892;28;20524;-69
2023/05/10 02:14:45;;;;;;;12.32;8.93;;;13.30;99.90;;;;;;5035132;28;20045;-69
2023/05/10 02:17:11;;;;;;;10.18;8.43;;;13.30;99.90;;;;;;5034861;28;20041;-69
2023/05/10 02:19:40;;;;;;;9.45;8.05;;;13.40;99.90;;;;;;5034787;28;20036;-69
2023/05/10 02:22:08;;;;;;;13.27;9.35;;;13.40;99.90;;;;;;5018381;28;20049;-69
2023/05/10 02:24:35;;;;;;;9.35;7.80;;;13.20;99.90;;;;;;5034692;28;20115;-69
2023/05/10 02:27:03;;;;;;;10.50;8.95;;;13.30;99.90;;;;;;5034842;28;20037;-69
2023/05/10 02:29:30;;;;;;;11.00;8.10;;;13.40;99.90;;;;;;5034635;28;20409;-69
2023/05/10 02:31:58;;;;;;;11.43;8.38;;;13.40;99.90;;;;;;5034991;28;20485;-69
2023/05/10 02:34:26;;;;;;;12.57;9.07;;;13.30;99.90;;;;;;5052870;28;20505;-69
2023/05/10 02:36:53;;;;;;;9.85;7.85;;;13.40;99.90;;;;;;5034771;28;20045;-69
2023/05/10 02:39:20;;;;;;;9.23;8.13;;;13.40;99.90;;;;;;5034838;28;20041;-69
2023/05/10 02:41:48;;;;;;;8.77;7.53;;;13.30;99.90;;;;;;5034645;28;20048;-69
2023/05/10 02:44:17;;;;;;;9.52;8.50;;;13.30;99.90;;;;;;5056291;28;20512;-69
2023/05/10 02:46:43;;;;;;;9.90;7.50;;;13.30;99.90;;;;;;5056181;28;20789;-69
2023/05/10 02:49:09;;;;;;;9.50;7.40;;;13.30;99.90;;;;;;5038346;28;20087;-69
2023/05/10 02:51:37;;;;;;;10.93;8.40;;;13.40;99.90;;;;;;5038314;28;20091;-69
2023/05/10 02:54:10;;;;;;;11.25;9.20;;;13.30;99.90;;;;;;5038480;28;20048;-69
2023/05/10 02:56:39;;;;;;;10.63;8.13;;;13.30;99.90;;;;;;5038514;28;20612;-69
2023/05/10 02:59:04;;;;;;;11.43;8.25;;;13.30;99.90;;;;;;5038135;28;20127;-69
2023/05/10 03:01:30;;;;;;;10.77;8.38;;;13.30;99.90;;;;;;5038188;28;20128;-69
2023/05/10 03:03:56;;;;;;;9.52;8.52;;;13.30;99.90;;;;;;5038353;28;20052;-69
2023/05/10 03:06:21;;;;;;;9.95;8.57;;;13.30;99.90;;;;;;5037966;28;20512;-69
2023/05/10 03:08:47;;;;;;;10.43;8.68;;;13.20;99.90;;;;;;5038000;28;20123;-69
2023/05/10 03:11:13;;;;;;;8.75;7.90;;;13.20;99.90;;;;;;5038041;28;20122;-69
2023/05/10 03:14:12;;;;;;;10.82;8.30;;;13.20;99.90;;;;;;5037962;28;20098;-69
2023/05/10 03:16:51;;;;;;;9.75;8.20;;;13.20;99.90;;;;;;5037852;28;20041;-69
2023/05/10 03:19:39;;;;;;;11.63;7.70;;;13.20;99.90;;;;;;5037984;28;20048;-69
2023/05/10 03:22:10;;;;;;;13.18;8.30;;;13.20;99.90;;;;;;5037737;28;20394;-69
2023/05/10 03:24:38;;;;;;;9.45;8.07;;;13.10;99.90;;;;;;5037608;28;20124;-69
2023/05/10 03:27:04;;;;;;;9.85;7.47;;;13.20;99.90;;;;;;5055545;28;20041;-69
2023/05/10 03:29:31;;;;;;;7.55;6.40;;;13.20;99.90;;;;;;5037579;28;20529;-69
2023/05/10 03:31:59;;;;;;;10.27;7.20;;;13.20;99.90;;;;;;5037879;28;20044;-69
2023/05/10 03:34:25;;;;;;;7.82;6.90;;;13.10;99.90;;;;;;5037593;28;20069;-69
2023/05/10 03:36:51;;;;;;;6.07;5.28;;;13.20;99.90;;;;;;5037577;28;20041;-69
2023/05/10 03:39:16;;;;;;;9.23;5.68;;;13.20;99.90;;;;;;5037370;28;20037;-69
2023/05/10 03:41:42;;;;;;;6.90;5.72;;;13.20;99.90;;;;;;5037735;28;20033;-69
2023/05/10 03:44:07;;;;;;;6.88;5.60;;;13.20;99.90;;;;;;5037444;28;20406;-69
2023/05/10 03:46:33;;;;;;;6.60;4.65;;;13.00;99.90;;;;;;5037242;28;20041;-69
2023/05/10 03:48:59;;;;;;;7.78;4.93;;;13.00;99.90;;;;;;5037292;28;20037;-69
2023/05/10 03:51:27;;;;;;;5.72;5.10;;;13.10;99.90;;;;;;5037509;28;20102;-69
2023/05/10 03:53:56;;;;;;;6.80;5.40;;;13.10;99.90;;;;;;5037208;28;20041;-69
2023/05/10 03:56:22;;;;;;;6.90;5.53;;;13.00;99.90;;;;;;5037169;28;20119;-69
2023/05/10 03:58:47;;;;;;;5.03;4.40;;;13.10;99.90;;;;;;5037352;28;20136;-69
2023/05/10 04:01:13;;;;;;;7.47;5.00;;;13.10;99.90;;;;;;5037345;28;20496;-69
2023/05/10 04:03:39;;;;;;;8.25;4.70;;;13.00;99.90;;;;;;5037061;28;20446;-69
2023/05/10 04:06:05;;;;;;;6.68;4.85;;;13.00;99.90;;;;;;5036938;28;20106;-69
2023/05/10 04:08:31;;;;;;;7.68;5.47;;;13.00;99.90;;;;;;5036887;28;20486;-69
2023/05/10 04:11:07;;;;;;;5.80;5.05;;;13.00;99.90;;;;;;5036861;28;20071;-69
2023/05/10 04:13:33;;;;;;;6.65;5.15;;;13.00;99.90;;;;;;5037369;28;20041;-69
2023/05/10 04:15:59;;;;;;;7.15;5.72;;;12.90;99.90;;;;;;5036817;28;20056;-69
2023/05/10 04:18:25;;;;;;;7.22;6.15;;;12.90;99.90;;;;;;5036803;28;20056;-69
2023/05/10 04:20:50;;;;;;;7.22;6.53;;;13.00;99.90;;;;;;5036653;28;20051;-69
2023/05/10 04:23:16;;;;;;;8.35;6.50;;;12.90;99.90;;;;;;5054531;28;20045;-69
2023/05/10 04:25:42;;;;;;;9.75;7.10;;;13.00;99.90;;;;;;5037377;28;20059;-68
2023/05/10 04:28:08;;;;;;;8.70;6.90;;;12.90;99.90;;;;;;5036707;28;20068;-68
2023/05/10 04:30:34;;;;;;;10.82;6.53;;;12.90;99.90;;;;;;5036454;28;20037;-68
2023/05/10 04:33:01;;;;;;;7.88;7.05;;;13.00;99.90;;;;;;5036441;28;20511;-68
2023/05/10 04:35:27;;;;;;;7.25;6.53;;;13.00;99.90;;;;;;5036639;28;20044;-68
2023/05/10 04:37:54;;;;;;;7.50;6.70;;;12.90;99.90;;;;;;5019864;28;20040;-69
2023/05/10 04:40:20;;;;;;;7.15;6.28;;;12.90;99.90;;;;;;5019833;28;20409;-69
2023/05/10 04:42:45;;;;;;;7.75;6.28;;;12.90;99.90;;;;;;5036265;28;20036;-69
2023/05/10 04:45:11;;;;;;;7.60;5.93;;;12.90;99.90;;;;;;5054019;28;20068;-69
2023/05/10 04:47:37;;;;;;;8.95;6.18;;;12.80;99.90;;;;;;5036121;28;20514;-69
2023/05/10 04:50:03;;;;;;;6.25;5.45;;;12.90;99.90;;;;;;5036324;28;20045;-69
2023/05/10 04:52:29;;;;;;;6.72;5.97;;;12.90;99.90;;;;;;5036086;28;20056;-69
2023/05/10 04:54:55;;;;;;;6.30;5.70;;;12.90;99.90;;;;;;5036053;28;20045;-69
2023/05/10 04:57:21;;;;;;;7.85;6.95;;;12.90;99.90;;;;;;5035937;28;20405;-69
2023/05/10 04:59:46;;;;;;;6.07;5.53;;;12.80;99.90;;;;;;5035843;28;20049;-69
2023/05/10 05:02:12;;;;;;;6.60;5.90;;;12.90;99.90;;;;;;5035937;28;20052;-69
2023/05/10 05:04:37;;;;;;;8.95;6.18;;;12.80;99.90;;;;;;5035522;28;20095;-69
2023/05/10 05:07:03;;;;;;;6.80;6.07;;;12.90;99.90;;;;;;5035676;28;20043;-69
2023/05/10 05:09:29;;;;;;;8.07;5.85;;;12.90;99.90;;;;;;5035715;28;20041;-69
2023/05/10 05:11:55;;;;;;;9.70;6.57;;;13.00;99.90;;;;;;5035753;28;20120;-69
2023/05/10 05:14:20;;;;;;;6.93;6.22;;;12.80;99.90;;;;;;5035629;28;20045;-69
2023/05/10 05:16:46;;;;;;;6.72;5.13;;;13.00;99.90;;;;;;5035697;28;20037;-69
2023/05/10 05:19:12;;;;;;;5.28;4.78;;;13.00;99.90;;;;;;5035718;28;20045;-69
2023/05/10 05:21:38;;;;;;;6.07;5.15;;;12.90;99.90;;;;;;5035574;28;20043;-69
2023/05/10 05:24:04;;;;;;;7.53;5.20;;;12.90;99.90;;;;;;5035466;28;20040;-69
2023/05/10 05:26:29;;;;;;;6.13;5.40;;;13.00;99.90;;;;;;5035456;28;20494;-69
2023/05/10 05:28:55;;;;;;;7.88;5.53;;;13.00;99.90;;;;;;5035399;28;20048;-69
2023/05/10 05:31:21;;;;;;;6.85;5.07;;;13.00;99.90;;;;;;5035433;28;20043;-69
2023/05/10 05:33:46;;;;;;;8.13;5.70;;;12.90;99.90;;;;;;5035385;28;20037;-69
2023/05/10 05:36:12;;;;;;;7.55;6.00;;;13.00;99.90;;;;;;5035350;28;20049;-69
2023/05/10 05:38:37;;;;;;;7.65;5.43;;;13.00;99.90;;;;;;5035792;28;20037;-68
2023/05/10 05:41:03;;;;;;;7.93;5.28;;;13.00;99.90;;;;;;5035274;28;20131;-68
2023/05/10 05:43:29;;;;;;;5.78;4.53;;;13.00;99.90;;;;;;5035360;28;20041;-68
2023/05/10 05:45:57;;;;;;;6.47;5.35;;;13.00;99.90;;;;;;5035158;28;20045;-69
2023/05/10 05:48:23;;;;;;;6.45;4.93;;;13.10;99.90;;;;;;5035096;28;20600;-69
2023/05/10 05:50:49;;;;;;;7.60;5.47;;;13.10;99.90;;;;;;5035419;28;20071;-69
2023/05/10 05:53:15;;;;;;;4.75;4.35;;;13.10;99.90;;;;;;5035092;28;20132;-69
2023/05/10 05:55:50;;;;;;;4.47;4.00;;;13.00;99.90;;;;;;5035110;28;20056;-69
2023/05/10 05:58:16;;;;;;;5.82;4.30;;;13.00;99.90;;;;;;5034983;28;20448;-69
2023/05/10 06:00:41;;;;;;;6.78;4.25;;;13.10;99.90;;;;;;5018670;28;20101;-69
2023/05/10 06:03:07;;;;;;;6.78;4.18;;;13.00;99.90;;;;;;5035108;28;20052;-69
2023/05/10 06:05:33;;;;;;;5.05;4.20;;;13.00;99.90;;;;;;5035008;28;20039;-69
2023/05/10 06:08:00;;;;;;;4.25;3.85;;;13.10;99.90;;;;;;5035220;28;20037;-69
2023/05/10 06:10:26;;;;;;;5.38;3.70;;;13.10;99.90;;;;;;5035052;28;20120;-69
2023/05/10 06:12:52;;;;;;;8.32;5.32;;;13.10;99.90;;;;;;5035007;28;20073;-69
2023/05/10 06:15:18;;;;;;;6.60;5.70;;;13.20;99.90;;;;;;5034962;28;20056;-69
2023/05/10 06:17:44;;;;;;;6.50;4.88;;;13.10;99.90;;;;;;5038621;28;20054;-69
2023/05/10 06:20:10;;;;;;;5.22;4.10;;;13.10;99.90;;;;;;5038985;28;20049;-69
2023/05/10 06:22:36;;;;;;;5.25;4.43;;;13.20;99.90;;;;;;5038893;28;20049;-68
2023/05/10 06:25:02;;;;;;;5.75;3.33;;;13.10;99.90;;;;;;5039041;28;20044;-68
2023/05/10 06:27:28;;;;;;;3.60;2.85;;;13.10;99.90;;;;;;5039978;28;20045;-68
2023/05/10 06:29:53;;;;;;;4.95;2.72;;;13.10;99.90;;;;;;5039033;28;20397;-69
2023/05/10 06:32:19;;;;;;;3.20;2.00;;;13.20;99.90;;;;;;5038985;28;20044;-69
2023/05/10 06:34:44;;;;;;;3.28;2.28;;;13.20;99.90;;;;;;5039058;28;20045;-69
2023/05/10 06:37:10;;;;;;;2.78;2.15;;;13.20;99.90;;;;;;5038679;28;20493;-69
2023/05/10 06:39:36;;;;;;;2.97;2.20;;;13.30;99.90;;;;;;5038563;28;20048;-69
2023/05/10 06:42:04;;;;;;;3.30;2.40;;;13.30;99.90;;;;;;5022097;28;20037;-68
2023/05/10 06:44:29;;;;;;;2.63;2.22;;;13.20;99.90;;;;;;5038436;28;20104;-69
2023/05/10 06:46:55;;;;;;;2.88;2.00;;;13.30;99.90;;;;;;5038349;28;20049;-69
2023/05/10 06:49:21;;;;;;;2.45;2.25;;;13.20;99.90;;;;;;5056468;28;20091;-68
2023/05/10 06:51:47;;;;;;;3.00;2.67;;;13.20;99.90;;;;;;5021987;28;20032;-68
2023/05/10 06:54:12;;;;;;;3.72;2.65;;;13.30;99.90;;;;;;5038327;28;20086;-68
2023/05/10 06:56:38;;;;;;;3.63;2.58;;;13.30;99.90;;;;;;5021879;28;20037;-68
2023/05/10 06:59:03;;;;;;;3.13;2.70;;;13.40;99.90;;;;;;5038485;28;20045;-68
2023/05/10 07:01:29;;;;;;;3.28;2.42;;;13.40;99.90;;;;;;5056248;28;20037;-68
2023/05/10 07:03:55;;;;;;;3.17;2.40;;;13.40;99.90;;;;;;5056358;28;20068;-68
2023/05/10 07:06:20;;;;;;;2.95;2.30;;;13.40;99.90;;;;;;5038041;28;20049;-68
2023/05/10 07:08:46;;;;;;;3.85;2.60;;;13.30;99.90;;;;;;5038313;28;20041;-68
2023/05/10 07:11:12;;;;;;;3.80;2.72;;;13.40;99.90;;;;;;5021661;28;20516;-68
2023/05/10 07:13:38;;;;;;;3.15;2.53;;;13.40;99.90;;;;;;5038038;28;20044;-68
2023/05/10 07:16:06;;;;;;;4.82;3.33;;;13.40;99.90;;;;;;5038008;28;20048;-68
2023/05/10 07:18:31;;;;;;;4.78;3.22;;;13.40;99.90;;;;;;5038108;28;20387;-68
2023/05/10 07:20:57;;;;;;;4.18;2.70;;;13.40;99.90;;;;;;5038161;28;20056;-68
2023/05/10 07:23:23;;;;;;;3.72;3.00;;;13.40;99.90;;;;;;5038112;28;20040;-68
2023/05/10 07:25:51;;;;;;;3.38;2.63;;;13.50;99.90;;;;;;5037761;28;20481;-68
2023/05/10 07:28:18;;;;;;;3.63;2.95;;;13.60;99.90;;;;;;5037031;28;20072;-68
2023/05/10 07:30:44;;;;;;;4.03;2.95;;;13.50;99.90;;;;;;5038018;28;20072;-68
2023/05/10 07:33:11;;;;;;;4.45;2.75;;;13.60;99.90;;;;;;5038143;28;20571;-68
2023/05/10 07:35:37;;;;;;;3.25;2.60;;;13.60;99.90;;;;;;5037680;28;20049;-68
2023/05/10 07:38:02;;;;;;;4.97;2.78;;;13.50;99.90;;;;;;5037624;28;20063;-68
2023/05/10 07:40:28;;;;;;;5.07;3.00;;;13.50;99.90;;;;;;5037786;28;20098;-68
2023/05/10 07:42:54;;;;;;;2.55;2.35;;;13.60;99.90;;;;;;5037739;28;20091;-69
2023/05/10 07:45:20;;;;;;;2.40;2.20;;;13.50;99.90;;;;;;5037353;28;20445;-69
2023/05/10 07:47:45;;;;;;;2.35;2.05;;;13.50;99.90;;;;;;5037182;28;20051;-69
2023/05/10 07:50:11;;;;;;;3.42;2.40;;;13.50;99.90;;;;;;5037363;28;20041;-69
2023/05/10 07:52:37;;;;;;;4.15;2.30;;;13.50;99.90;;;;;;5021104;28;20087;-69
2023/05/10 07:55:02;;;;;;;3.35;2.47;;;13.60;99.90;;;;;;5037524;28;20076;-69
2023/05/10 07:57:28;;;;;;;4.00;2.67;;;13.50;99.90;;;;;;5037169;28;20124;-69
2023/05/10 07:59:54;;;;;;;3.03;1.98;;;13.60;99.90;;;;;;5037425;28;20044;-69
2023/05/10 08:02:19;;;;;;;5.00;2.60;;;13.50;99.90;;;;;;5037483;28;20409;-68
2023/05/10 08:04:45;;;;;;;2.78;2.30;;;13.50;99.90;;;;;;5037037;28;20548;-68
2023/05/10 08:07:11;;;;;;;4.30;2.55;;;13.50;99.90;;;;;;5037121;28;20036;-68
2023/05/10 08:09:36;;;;;;;4.18;2.78;;;13.50;99.90;;;;;;5036926;28;20056;-68
2023/05/10 08:12:02;;;;;;;3.65;2.78;;;13.50;99.90;;;;;;5036922;28;20052;-68
2023/05/10 08:14:29;;;;;;;5.05;2.90;;;13.60;99.90;;;;;;5036831;28;20036;-69
2023/05/10 08:16:55;;;;;;;2.70;2.47;;;13.60;99.90;;;;;;5036789;28;20489;-69
2023/05/10 08:19:21;;;;;;;2.80;2.50;;;13.70;99.90;;;;;;5036756;28;20045;-68
2023/05/10 08:21:47;;;;;;;4.63;2.67;;;13.60;99.90;;;;;;5037024;28;20048;-68
2023/05/10 08:24:13;;;;;;;3.78;2.60;;;13.70;99.90;;;;;;5036733;28;20082;-68
2023/05/10 08:26:38;;;;;;;3.15;1.95;;;13.80;99.90;;;;;;5036583;28;20053;-68
2023/05/10 08:29:04;;;;;;;8.13;2.42;;;14.00;99.90;;;;;;5037404;28;20080;-68
2023/05/10 08:31:30;;;;;;;4.47;2.38;;;14.10;99.90;;;;;;5036868;28;20178;-68
2023/05/10 08:33:55;;;;;;;2.78;2.25;;;14.10;99.90;;;;;;5036582;28;20405;-68
2023/05/10 08:36:23;;;;;;;4.05;3.38;;;14.00;99.90;;;;;;5036804;28;20118;-68
2023/05/10 08:38:51;;;;;;;4.97;3.00;;;14.00;99.90;;;;;;5036649;28;20048;-68
2023/05/10 08:41:20;;;;;;;4.13;2.83;;;14.00;99.90;;;;;;5035338;28;20060;-68
2023/05/10 08:43:46;;;;;;;3.60;2.85;;;14.00;99.90;;;;;;5036597;28;20056;-68
2023/05/10 08:46:17;;;;;;;4.40;3.10;;;14.10;99.90;;;;;;5036235;28;20052;-68
2023/05/10 08:48:44;;;;;;;3.75;2.70;;;14.00;99.90;;;;;;5053984;28;20040;-68
2023/05/10 08:51:13;;;;;;;2.85;1.95;;;14.20;99.90;;;;;;5036204;28;20049;-68
2023/05/10 08:53:39;;;;;;;3.38;2.50;;;14.20;99.90;;;;;;5036166;28;20469;-68
2023/05/10 08:56:05;;;;;;;5.10;2.67;;;14.30;99.90;;;;;;5036091;28;20072;-68
2023/05/10 08:58:31;;;;;;;4.25;2.60;;;14.30;99.90;;;;;;5036026;28;20044;-68
2023/05/10 09:01:04;;;;;;;4.47;2.08;;;14.30;99.90;;;;;;5111813;27;20384;-69
2023/05/10 09:03:31;;;;;;;3.15;2.00;;;14.40;99.90;;;;;;5092749;28;20052;-69
2023/05/10 09:05:57;;;;;;;4.07;2.47;;;14.50;99.90;;;;;;5092989;28;20051;-69
2023/05/10 09:08:26;;;;;;;3.38;2.33;;;14.50;99.90;;;;;;5092590;28;20036;-69
2023/05/10 09:10:53;;;;;;;3.47;2.60;;;14.60;99.90;;;;;;5092634;28;20040;-69
2023/05/10 09:13:19;;;;;;;3.15;2.22;;;14.60;99.90;;;;;;5092641;28;20036;-69
2023/05/10 09:15:45;;;;;;;2.28;2.03;;;14.60;99.90;;;;;;5092516;28;20511;-69
2023/05/10 09:18:12;;;;;;;4.85;2.35;;;14.60;99.90;;;;;;5092695;28;20032;-69
2023/05/10 09:20:37;;;;;;;3.55;2.58;;;14.70;99.90;;;;;;5075498;28;20071;-69
2023/05/10 09:23:03;;;;;;;3.47;2.50;;;14.70;99.90;;;;;;5092703;28;20078;-68
2023/05/10 09:25:29;;;;;;;4.05;2.53;;;14.80;99.90;;;;;;5092355;28;20381;-69
2023/05/10 09:27:55;;;;;;;3.35;2.40;;;14.80;99.90;;;;;;5075552;28;20031;-68
2023/05/10 09:30:26;;;;;;;3.78;2.67;;;14.90;99.90;;;;;;5092522;28;20659;-68
2023/05/10 09:32:52;;;;;;;4.40;2.95;;;15.00;99.90;;;;;;5110496;28;20082;-68
2023/05/10 09:35:21;;;;;;;3.95;3.33;;;14.80;99.90;;;;;;5092160;28;20043;-68
2023/05/10 09:37:48;;;;;;;5.38;3.45;;;14.80;99.90;;;;;;5075115;28;20417;-68
2023/05/10 09:40:17;;;;;;;5.03;3.17;;;14.90;99.90;;;;;;5091994;28;20047;-68
2023/05/10 09:42:54;;;;;;;3.65;2.60;;;14.80;99.90;;;;;;5091991;28;20054;-68
2023/05/10 09:45:20;;;;;;;3.05;1.98;;;15.00;99.90;;;;;;5075461;28;20386;-68
2023/05/10 09:47:46;;;;;;;4.38;2.00;;;15.10;99.90;;;;;;5091806;28;20035;-69
2023/05/10 09:50:12;;;;;;;3.75;2.60;;;15.10;99.90;;;;;;5091977;28;20047;-69
2023/05/10 09:52:58;;;;;;;3.47;2.25;;;15.20;99.90;;;;;;5110167;28;20115;-69
2023/05/10 09:55:26;;;;;;;4.15;2.45;;;15.20;99.90;;;;;;5091912;28;20032;-68
2023/05/10 09:58:00;;;;;;;2.90;2.60;;;15.20;99.90;;;;;;5091670;28;20403;-68
2023/05/10 10:00:27;;;;;;;3.42;2.80;;;15.30;99.90;;;;;;5091512;28;20044;-69
2023/05/10 10:02:57;;;;;;;4.53;3.05;;;15.20;99.90;;;;;;5091643;28;20036;-69
2023/05/10 10:05:33;;;;;;;5.07;2.42;;;15.30;99.90;;;;;;5091630;28;20519;-69
2023/05/10 10:08:04;;;;;;;5.43;2.35;;;15.30;99.90;;;;;;5091577;28;20438;-69
2023/05/10 10:10:31;;;;;;;3.05;2.42;;;15.40;99.90;;;;;;5089217;28;20044;-68
2023/05/10 10:12:57;;;;;;;4.43;2.90;;;15.70;99.90;;;;;;5078144;28;20083;-68
2023/05/10 10:15:24;;;;;;;4.18;2.42;;;15.70;99.90;;;;;;5077801;28;20457;-68
2023/05/10 10:17:50;;;;;;;3.42;2.42;;;15.80;99.90;;;;;;5077965;28;20040;-68
2023/05/10 10:20:17;;;;;;;6.22;2.53;;;15.80;99.90;;;;;;5077791;28;20044;-69
2023/05/10 10:22:46;;;;;;;4.78;2.63;;;16.00;99.90;;;;;;5077775;28;20043;-68
2023/05/10 10:25:13;;;;;;;6.18;2.95;;;16.00;99.90;;;;;;5077736;28;20085;-68
2023/05/10 10:27:53;;;;;;;4.20;2.58;;;16.10;99.90;;;;;;5060996;28;20075;-69
2023/05/10 10:30:36;;;;;;;4.93;3.15;;;16.10;99.90;;;;;;5061245;28;20043;-69
2023/05/10 10:33:50;;;;;;;3.70;2.93;;;16.10;99.90;;;;;;5077688;28;20085;-68
2023/05/10 10:36:16;;;;;;;3.58;2.53;;;16.00;99.90;;;;;;4977901;28;20101;-68
2023/05/10 10:38:47;;;;;;;5.45;2.88;;;16.00;99.90;;;;;;4977613;28;20054;-68
2023/05/10 10:41:27;;;;;;;11.95;3.67;;;16.00;99.90;;;;;;4977705;28;20430;-69
2023/05/10 10:44:30;;;;;;;4.13;3.28;;;15.90;99.90;;;;;;4977704;28;20121;-68
2023/05/10 10:47:24;;;;;;;6.77;3.60;;;15.90;99.90;;;;;;4977521;28;20058;-68
2023/05/10 10:50:03;;;;;;;4.32;3.33;;;15.90;99.90;;;;;;4961435;28;20801;-68
2023/05/10 10:52:34;;;;;;;4.80;2.92;;;15.90;99.90;;;;;;4977626;28;20475;-68
2023/05/10 10:55:11;;;;;;;4.65;3.45;;;16.00;99.90;;;;;;4977724;28;20047;-68
2023/05/10 10:58:00;;;;;;;4.80;2.75;;;15.90;99.90;;;;;;4977288;28;20088;-69
2023/05/10 11:00:33;;;;;;;6.63;2.90;;;16.00;99.90;;;;;;4961076;28;20046;-69
2023/05/10 11:03:13;;;;;;;4.70;3.58;;;15.90;99.90;;;;;;4961380;28;20495;-68
2023/05/10 11:05:44;;;;;;;3.78;3.20;;;15.90;99.90;;;;;;4977455;28;20051;-68
2023/05/10 11:08:14;;;;;;;5.85;3.08;;;16.00;99.90;;;;;;4977112;28;20038;-68
2023/05/10 11:10:49;;;;;;;4.15;3.20;;;16.10;99.90;;;;;;4989077;28;20085;-68
2023/05/10 11:13:14;;;;;;;4.43;3.33;;;16.20;99.90;;;;;;5060137;28;20404;-69
2023/05/10 11:15:49;;;;;;;5.13;3.58;;;16.20;99.90;;;;;;5060103;28;20040;-68
2023/05/10 11:18:24;;;;;;;5.80;3.50;;;16.20;99.90;;;;;;5076695;28;20044;-68
2023/05/10 11:21:02;;;;;;;6.25;3.47;;;16.20;99.90;;;;;;5076628;28;20040;-68
2023/05/10 11:23:43;;;;;;;4.13;3.08;;;16.20;99.90;;;;;;5059253;28;20099;-68
2023/05/10 11:26:09;;;;;;;5.43;3.22;;;16.10;99.90;;;;;;5060105;28;20050;-70
2023/05/10 11:28:41;;;;;;;5.82;3.58;;;16.10;99.90;;;;;;5076390;28;20397;-70
2023/05/10 11:31:07;;;;;;;3.97;3.50;;;16.10;99.90;;;;;;5077374;28;20048;-70
2023/05/10 11:33:48;;;;;;;4.43;3.58;;;16.10;99.90;;;;;;5059791;28;20043;-70
2023/05/10 11:36:19;;;;;;;4.97;3.88;;;16.10;99.90;;;;;;5076654;28;20122;-70
2023/05/10 11:38:45;;;;;;;3.63;3.13;;;16.10;99.90;;;;;;5076136;28;20036;-70
2023/05/10 11:41:12;;;;;;;6.68;4.18;;;16.10;99.90;;;;;;5076224;28;20382;-70
2023/05/10 11:43:41;;;;;;;5.18;3.63;;;16.00;99.90;;;;;;5076165;28;20028;-70
2023/05/10 11:46:12;;;;;;;6.82;3.40;;;16.10;99.90;;;;;;5076156;28;20047;-70
2023/05/10 11:48:41;;;;;;;5.00;3.38;;;16.20;99.90;;;;;;5076043;28;20039;-70
2023/05/10 11:51:08;;;;;;;5.20;3.38;;;16.20;99.90;;;;;;5076046;28;20097;-70
2023/05/10 11:53:34;;;;;;;6.65;3.33;;;16.30;99.90;;;;;;5076000;28;20441;-70
2023/05/10 11:56:04;;;;;;;5.40;3.67;;;16.30;99.90;;;;;;5075973;28;20032;-70
2023/05/10 11:58:30;;;;;;;4.32;3.92;;;16.40;99.90;;;;;;5075883;28;20040;-70
2023/05/10 12:00:57;;;;;;;5.93;3.78;;;16.40;99.90;;;;;;5075581;28;20048;-70
2023/05/10 12:03:22;;;;;;;4.22;3.60;;;16.40;99.90;;;;;;5075834;28;20039;-70
2023/05/10 12:05:48;;;;;;;5.25;4.03;;;16.40;99.90;;;;;;5075664;28;20047;-69
2023/05/10 12:08:15;;;;;;;4.95;3.35;;;16.30;99.90;;;;;;5075707;28;20036;-69
2023/05/10 12:10:41;;;;;;;5.10;3.40;;;16.30;99.90;;;;;;5075679;28;20132;-70
2023/05/10 12:13:14;;;;;;;5.53;3.55;;;16.20;99.90;;;;;;5075664;28;20118;-70
2023/05/10 12:15:41;;;;;;;6.35;3.75;;;16.10;99.90;;;;;;5075668;28;20408;-70
2023/05/10 12:18:12;;;;;;;4.35;3.63;;;16.00;99.90;;;;;;5058872;28;20047;-70
2023/05/10 12:20:38;;;;;;;6.25;5.32;;;16.00;99.90;;;;;;5075602;28;20442;-70
2023/05/10 12:23:05;;;;;;;8.65;5.45;;;15.90;99.90;;;;;;5075525;28;20088;-70
2023/05/10 12:25:36;;;;;;;5.28;4.75;;;15.90;99.90;;;;;;5075801;28;20098;-70
2023/05/10 12:28:06;;;;;;;5.57;4.07;;;15.90;99.90;;;;;;5058682;28;20044;-70
2023/05/10 12:30:34;;;;;;;4.03;3.63;;;15.90;99.90;;;;;;5075391;28;20044;-70
2023/05/10 12:33:11;;;;;;;4.43;3.35;;;15.80;99.90;;;;;;5075633;28;20540;-70
2023/05/10 12:35:51;;;;;;;5.05;3.47;;;15.90;99.90;;;;;;5075101;28;20079;-70
2023/05/10 12:38:31;;;;;;;5.45;3.65;;;15.90;99.90;;;;;;5075493;28;20051;-70
2023/05/10 12:41:02;;;;;;;5.93;3.78;;;15.80;99.90;;;;;;5075287;28;20513;-70
2023/05/10 12:43:29;;;;;;;5.78;4.15;;;15.80;99.90;;;;;;5075219;28;20039;-70
2023/05/10 12:45:54;;;;;;;7.03;4.60;;;15.80;99.90;;;;;;5075185;28;20036;-70
2023/05/10 12:48:20;;;;;;;7.50;4.78;;;15.60;99.90;;;;;;5075390;28;20119;-70
2023/05/10 12:50:46;;;;;;;7.13;5.22;;;15.60;99.90;;;;;;5075091;28;20047;-70
2023/05/10 12:53:15;;;;;;;8.30;5.70;;;15.60;99.90;;;;;;5075139;28;20535;-70